PWSweather.com
Personal Weather Stations
Station Observations
KVACHESA44
Sawyers Mill, Chesapeake, VA 23323

Sawyers MillChesapeake, VA 23323

Lat: 36.726506, Lon: -76.341114

Elevation: 12

Station Type: Fine Point/WS1080

http://computerwright.com/weather/index.htm

Latest ConditionsUpdated 9:00:00 PM EDT Monday, Mar 25, 2019
Currently Today's Max Today's Min Today's Average
Temperature 51.4°F10.8°C 73.8°F23.2°C 51.4°F10.8°C 62.1°F16.7°C
Dew Point 50.0°F10.0°C 57.9°F14.4°C 39.2°F4.0°C 50.1°F10.1°C
Winds 2.1 mph NE3.4 kmh NE 4.8 mph -7.7 kmh - - 2.0 mph 3.2 kmh
Wind Gusts 11.0 mph17.7 kmh 14.0 mph22.5 kmh - -
Humidity 95% 95% 50% 66%
Pressure 29.96 in1014.6 mb 30.17 in1021.7 mb 29.88 in1011.9 mb -
Precipitation - 0.58 in14.7 mm - -
Hour Temp Dew Point Humidity Winds Wind Gusts Pressure Precip Precip Rate Daily Precip Total
09:00 PM 51.4°F10.8°C 50.0°F10.0°C 95% 2.1 mph NE3.4 kmh NE 11.0 mph17.7 kmh 29.96 in1014.6 mb 0.35 in8.9 mm 0.00 in0.0 mm 0.58 in14.7 mm
08:45 PM 51.6°F10.9°C 50.2°F10.1°C 95% 2.9 mph NE4.7 kmh NE 8.0 mph12.9 kmh 29.94 in1013.9 mb 0.39 in9.9 mm 0.00 in0.0 mm 0.57 in14.5 mm
08:30 PM 52.0°F11.1°C 50.3°F10.2°C 94% 4.8 mph NE7.7 kmh NE 12.0 mph19.3 kmh 29.95 in1014.2 mb 0.44 in11.2 mm 0.48 in12.2 mm 0.54 in13.7 mm
08:15 PM 53.5°F11.9°C 51.5°F10.8°C 93% 2.1 mph NNE3.4 kmh NNE 10.0 mph16.1 kmh 29.96 in1014.6 mb 0.32 in8.1 mm 0.40 in10.2 mm 0.41 in10.4 mm
08:00 PM 55.3°F12.9°C 53.0°F11.7°C 92% 3.2 mph NE5.1 kmh NE 10.0 mph16.1 kmh 29.93 in1013.5 mb 0.22 in5.6 mm 0.05 in1.3 mm 0.22 in5.6 mm
07:45 PM 57.1°F13.9°C 54.8°F12.7°C 92% 2.0 mph NE3.2 kmh NE 9.0 mph14.5 kmh 29.91 in1012.9 mb 0.18 in4.6 mm 0.32 in8.1 mm 0.18 in4.6 mm
07:30 PM 57.9°F14.4°C 55.3°F12.9°C 91% 2.5 mph NE4.0 kmh NE 5.0 mph8.0 kmh 29.91 in1012.9 mb 0.10 in2.5 mm 0.04 in1.0 mm 0.10 in2.5 mm
07:15 PM 59.5°F15.3°C 55.9°F13.3°C 88% 3.4 mph NNE5.5 kmh NNE 14.0 mph22.5 kmh 29.90 in1012.5 mb 0.09 in2.3 mm 0.36 in9.1 mm 0.09 in2.3 mm
07:00 PM 65.8°F18.8°C 57.3°F14.1°C 74% 1.5 mph N2.4 kmh N 12.0 mph19.3 kmh 29.90 in1012.5 mb 0.00 in0.0 mm 0.00 in0.0 mm 0.00 in0.0 mm
06:45 PM 68.1°F20.1°C 57.9°F14.4°C 70% Calm Calm -- 29.88 in1011.9 mb 0.00 in0.0 mm 0.00 in0.0 mm 0.00 in0.0 mm
06:30 PM 68.5°F20.3°C 56.7°F13.7°C 66% Calm Calm -- 29.88 in1011.9 mb 0.00 in0.0 mm 0.00 in0.0 mm 0.00 in0.0 mm
06:15 PM 69.1°F20.6°C 57.3°F14.1°C 66% Calm Calm -- 29.88 in1011.9 mb 0.00 in0.0 mm 0.00 in0.0 mm 0.00 in0.0 mm
06:00 PM 69.3°F20.7°C 57.0°F13.9°C 65% Calm Calm -- 29.89 in1012.2 mb 0.00 in0.0 mm 0.00 in0.0 mm 0.00 in0.0 mm
05:45 PM 69.5°F20.8°C 56.3°F13.5°C 63% Calm Calm -- 29.89 in1012.2 mb 0.00 in0.0 mm 0.00 in0.0 mm 0.00 in0.0 mm
05:30 PM 69.8°F21.0°C 56.2°F13.4°C 62% Calm Calm 1.0 mph1.6 kmh 29.90 in1012.5 mb 0.00 in0.0 mm 0.00 in0.0 mm 0.00 in0.0 mm
05:15 PM 70.2°F21.2°C 55.7°F13.2°C 60% Calm Calm 1.0 mph1.6 kmh 29.91 in1012.9 mb 0.00 in0.0 mm 0.00 in0.0 mm 0.00 in0.0 mm
05:00 PM 70.6°F21.4°C 54.6°F12.6°C 57% 0.9 mph SW1.4 kmh SW 4.0 mph6.4 kmh 29.91 in1012.9 mb 0.00 in0.0 mm 0.00 in0.0 mm 0.00 in0.0 mm
04:45 PM 70.9°F21.6°C 54.9°F12.7°C 57% 1.0 mph SW1.6 kmh SW 3.0 mph4.8 kmh 29.92 in1013.2 mb 0.00 in0.0 mm 0.00 in0.0 mm 0.00 in0.0 mm
04:30 PM 71.3°F21.8°C 54.3°F12.4°C 55% 2.5 mph SW4.0 kmh SW 5.0 mph8.0 kmh 29.92 in1013.2 mb 0.00 in0.0 mm 0.00 in0.0 mm 0.00 in0.0 mm
04:15 PM 72.0°F22.2°C 54.4°F12.4°C 54% 1.9 mph SW3.1 kmh SW 7.0 mph11.3 kmh 29.93 in1013.5 mb 0.00 in0.0 mm 0.00 in0.0 mm 0.00 in0.0 mm
04:00 PM 72.7°F22.6°C 53.5°F11.9°C 51% 1.4 mph SW2.3 kmh SW 5.0 mph8.0 kmh 29.93 in1013.5 mb 0.00 in0.0 mm 0.00 in0.0 mm 0.00 in0.0 mm
03:45 PM 73.0°F22.8°C 54.3°F12.4°C 52% 2.0 mph SW3.2 kmh SW 6.0 mph9.7 kmh 29.94 in1013.9 mb 0.00 in0.0 mm 0.00 in0.0 mm 0.00 in0.0 mm
03:30 PM 73.3°F22.9°C 55.1°F12.8°C 53% 2.0 mph SW3.2 kmh SW 5.0 mph8.0 kmh 29.95 in1014.2 mb 0.00 in0.0 mm 0.00 in0.0 mm 0.00 in0.0 mm
03:15 PM 73.3°F22.9°C 54.6°F12.6°C 52% 2.8 mph SW4.5 kmh SW 6.0 mph9.7 kmh 29.95 in1014.2 mb 0.00 in0.0 mm 0.00 in0.0 mm 0.00 in0.0 mm
03:00 PM 73.0°F22.8°C 53.8°F12.1°C 51% 3.4 mph SW5.5 kmh SW 10.0 mph16.1 kmh 29.96 in1014.6 mb 0.00 in0.0 mm 0.00 in0.0 mm 0.00 in0.0 mm
02:45 PM 73.8°F23.2°C 55.1°F12.8°C 52% 1.4 mph SW2.3 kmh SW 9.0 mph14.5 kmh 29.96 in1014.6 mb 0.00 in0.0 mm 0.00 in0.0 mm 0.00 in0.0 mm
02:30 PM 73.5°F23.1°C 55.8°F13.2°C 54% 2.0 mph SW3.2 kmh SW 8.0 mph12.9 kmh 29.97 in1014.9 mb 0.00 in0.0 mm 0.00 in0.0 mm 0.00 in0.0 mm
02:15 PM 72.6°F22.6°C 56.0°F13.3°C 56% 2.0 mph SW3.2 kmh SW 7.0 mph11.3 kmh 29.98 in1015.2 mb 0.00 in0.0 mm 0.00 in0.0 mm 0.00 in0.0 mm
02:00 PM 71.0°F21.7°C 55.0°F12.8°C 57% 1.0 mph WSW1.6 kmh WSW 4.0 mph6.4 kmh 29.99 in1015.6 mb 0.00 in0.0 mm 0.00 in0.0 mm 0.00 in0.0 mm
01:45 PM 70.6°F21.4°C 54.6°F12.6°C 57% 1.8 mph SW2.9 kmh SW 7.0 mph11.3 kmh 30.00 in1015.9 mb 0.00 in0.0 mm 0.00 in0.0 mm 0.00 in0.0 mm
01:30 PM 70.9°F21.6°C 54.9°F12.7°C 57% 2.0 mph WSW3.2 kmh WSW 7.0 mph11.3 kmh 30.00 in1015.9 mb 0.00 in0.0 mm 0.00 in0.0 mm 0.00 in0.0 mm
01:15 PM 71.0°F21.7°C 55.0°F12.8°C 57% 1.8 mph SW2.9 kmh SW 7.0 mph11.3 kmh 30.00 in1015.9 mb 0.00 in0.0 mm 0.00 in0.0 mm 0.00 in0.0 mm
01:00 PM 71.0°F21.7°C 55.5°F13.1°C 58% 1.3 mph WSW2.1 kmh WSW 5.0 mph8.0 kmh 30.00 in1015.9 mb 0.00 in0.0 mm 0.00 in0.0 mm 0.00 in0.0 mm
12:45 PM 70.4°F21.3°C 55.4°F13.0°C 59% 2.1 mph WSW3.4 kmh WSW 6.0 mph9.7 kmh 30.01 in1016.3 mb 0.00 in0.0 mm 0.00 in0.0 mm 0.00 in0.0 mm
12:30 PM 69.2°F20.7°C 54.7°F12.6°C 60% 2.8 mph SW4.5 kmh SW 11.0 mph17.7 kmh 30.02 in1016.6 mb 0.00 in0.0 mm 0.00 in0.0 mm 0.00 in0.0 mm
12:15 PM 69.0°F20.6°C 55.0°F12.8°C 61% 2.4 mph SW3.9 kmh SW 7.0 mph11.3 kmh 30.02 in1016.6 mb 0.00 in0.0 mm 0.00 in0.0 mm 0.00 in0.0 mm
12:00 PM 69.3°F20.7°C 55.3°F12.9°C 61% 3.1 mph SW5.0 kmh SW 9.0 mph14.5 kmh 30.03 in1016.9 mb 0.00 in0.0 mm 0.00 in0.0 mm 0.00 in0.0 mm
11:45 AM 69.5°F20.8°C 55.5°F13.1°C 61% 2.9 mph SW4.7 kmh SW 12.0 mph19.3 kmh 30.03 in1016.9 mb 0.00 in0.0 mm 0.00 in0.0 mm 0.00 in0.0 mm
11:30 AM 68.3°F20.2°C 54.3°F12.4°C 61% 2.8 mph SW4.5 kmh SW 8.0 mph12.9 kmh 30.03 in1016.9 mb 0.00 in0.0 mm 0.00 in0.0 mm 0.00 in0.0 mm
11:15 AM 68.5°F20.3°C 54.5°F12.5°C 61% 2.0 mph SW3.2 kmh SW 8.0 mph12.9 kmh 30.03 in1016.9 mb 0.00 in0.0 mm 0.00 in0.0 mm 0.00 in0.0 mm
11:00 AM 68.0°F20.0°C 54.5°F12.5°C 62% 3.5 mph SW5.6 kmh SW 10.0 mph16.1 kmh 30.03 in1016.9 mb 0.00 in0.0 mm 0.00 in0.0 mm 0.00 in0.0 mm
10:45 AM 67.0°F19.4°C 54.4°F12.4°C 64% 2.5 mph SW4.0 kmh SW 10.0 mph16.1 kmh 30.04 in1017.3 mb 0.00 in0.0 mm 0.00 in0.0 mm 0.00 in0.0 mm
10:30 AM 65.6°F18.7°C 53.9°F12.2°C 66% 2.9 mph SW4.7 kmh SW 9.0 mph14.5 kmh 30.04 in1017.3 mb 0.00 in0.0 mm 0.00 in0.0 mm 0.00 in0.0 mm
10:15 AM 64.9°F18.3°C 53.7°F12.1°C 67% 2.0 mph SW3.2 kmh SW 8.0 mph12.9 kmh 30.05 in1017.6 mb 0.00 in0.0 mm 0.00 in0.0 mm 0.00 in0.0 mm
10:00 AM 63.9°F17.7°C 53.1°F11.7°C 68% 2.0 mph WSW3.2 kmh WSW 8.0 mph12.9 kmh 30.05 in1017.6 mb 0.00 in0.0 mm 0.00 in0.0 mm 0.00 in0.0 mm
09:45 AM 62.6°F17.0°C 52.7°F11.5°C 70% 3.0 mph SW4.8 kmh SW 9.0 mph14.5 kmh 30.05 in1017.6 mb 0.00 in0.0 mm 0.00 in0.0 mm 0.00 in0.0 mm
09:30 AM 61.9°F16.6°C 52.4°F11.3°C 71% 2.6 mph SW4.2 kmh SW 13.0 mph20.9 kmh 30.05 in1017.6 mb 0.00 in0.0 mm 0.00 in0.0 mm 0.00 in0.0 mm
09:15 AM 60.9°F16.1°C 51.8°F11.0°C 72% 2.5 mph SW4.0 kmh SW 11.0 mph17.7 kmh 30.05 in1017.6 mb 0.00 in0.0 mm 0.00 in0.0 mm 0.00 in0.0 mm
09:00 AM 59.4°F15.2°C 50.7°F10.4°C 73% 2.0 mph SW3.2 kmh SW 9.0 mph14.5 kmh 30.06 in1017.9 mb 0.00 in0.0 mm 0.00 in0.0 mm 0.00 in0.0 mm
08:45 AM 57.8°F14.3°C 49.9°F9.9°C 75% 1.3 mph SW2.1 kmh SW 8.0 mph12.9 kmh 30.06 in1017.9 mb 0.00 in0.0 mm 0.00 in0.0 mm 0.00 in0.0 mm
08:30 AM 55.9°F13.3°C 48.4°F9.1°C 76% 1.6 mph SW2.6 kmh SW 5.0 mph8.0 kmh 30.06 in1017.9 mb 0.00 in0.0 mm 0.00 in0.0 mm 0.00 in0.0 mm
08:15 AM 54.9°F12.7°C 47.8°F8.8°C 77% 2.0 mph SW3.2 kmh SW 6.0 mph9.7 kmh 30.06 in1017.9 mb 0.00 in0.0 mm 0.00 in0.0 mm 0.00 in0.0 mm
08:00 AM 53.9°F12.2°C 47.2°F8.4°C 78% 1.0 mph SW1.6 kmh SW 4.0 mph6.4 kmh 30.06 in1017.9 mb 0.00 in0.0 mm 0.00 in0.0 mm 0.00 in0.0 mm
07:45 AM 53.4°F11.9°C 46.4°F8.0°C 77% 0.5 mph SSW0.8 kmh SSW 2.0 mph3.2 kmh 30.06 in1017.9 mb 0.00 in0.0 mm 0.00 in0.0 mm 0.00 in0.0 mm
07:30 AM 53.4°F11.9°C 46.4°F8.0°C 77% 0.5 mph SSW0.8 kmh SSW 3.0 mph4.8 kmh 30.07 in1018.3 mb 0.00 in0.0 mm 0.00 in0.0 mm 0.00 in0.0 mm
07:15 AM 53.7°F12.1°C 46.0°F7.8°C 75% 0.8 mph SW1.3 kmh SW 3.0 mph4.8 kmh 30.06 in1017.9 mb 0.00 in0.0 mm 0.00 in0.0 mm 0.00 in0.0 mm
07:00 AM 54.7°F12.6°C 46.6°F8.1°C 74% 2.0 mph SW3.2 kmh SW 6.0 mph9.7 kmh 30.07 in1018.3 mb 0.00 in0.0 mm 0.00 in0.0 mm 0.00 in0.0 mm
06:45 AM 54.9°F12.7°C 46.4°F8.0°C 73% 2.2 mph SW3.5 kmh SW 8.0 mph12.9 kmh 30.07 in1018.3 mb 0.00 in0.0 mm 0.00 in0.0 mm 0.00 in0.0 mm
06:30 AM 55.1°F12.8°C 45.9°F7.7°C 71% 3.0 mph SW4.8 kmh SW 7.0 mph11.3 kmh 30.07 in1018.3 mb 0.00 in0.0 mm 0.00 in0.0 mm 0.00 in0.0 mm
06:15 AM 55.2°F12.9°C 46.0°F7.8°C 71% 2.4 mph SW3.9 kmh SW 8.0 mph12.9 kmh 30.07 in1018.3 mb 0.00 in0.0 mm 0.00 in0.0 mm 0.00 in0.0 mm
06:00 AM 55.5°F13.1°C 45.9°F7.7°C 70% 3.0 mph SW4.8 kmh SW 8.0 mph12.9 kmh 30.07 in1018.3 mb 0.00 in0.0 mm 0.00 in0.0 mm 0.00 in0.0 mm
05:45 AM 55.7°F13.2°C 45.7°F7.6°C 69% 3.0 mph SW4.8 kmh SW 9.0 mph14.5 kmh 30.07 in1018.3 mb 0.00 in0.0 mm 0.00 in0.0 mm 0.00 in0.0 mm
05:30 AM 55.9°F13.3°C 45.5°F7.5°C 68% 3.0 mph SW4.8 kmh SW 8.0 mph12.9 kmh 30.07 in1018.3 mb 0.00 in0.0 mm 0.00 in0.0 mm 0.00 in0.0 mm
05:15 AM 56.0°F13.3°C 45.2°F7.3°C 67% 2.1 mph SW3.4 kmh SW 9.0 mph14.5 kmh 30.07 in1018.3 mb 0.00 in0.0 mm 0.00 in0.0 mm 0.00 in0.0 mm
05:00 AM 56.3°F13.5°C 45.1°F7.3°C 66% 2.7 mph SW4.3 kmh SW 9.0 mph14.5 kmh 30.07 in1018.3 mb 0.00 in0.0 mm 0.00 in0.0 mm 0.00 in0.0 mm
04:45 AM 56.4°F13.6°C 45.2°F7.3°C 66% 2.6 mph SW4.2 kmh SW 9.0 mph14.5 kmh 30.08 in1018.6 mb 0.00 in0.0 mm 0.00 in0.0 mm 0.00 in0.0 mm
04:30 AM 56.3°F13.5°C 44.7°F7.1°C 65% 2.1 mph SW3.4 kmh SW 7.0 mph11.3 kmh 30.08 in1018.6 mb 0.00 in0.0 mm 0.00 in0.0 mm 0.00 in0.0 mm
04:15 AM 56.5°F13.6°C 44.5°F6.9°C 64% 3.0 mph SW4.8 kmh SW 8.0 mph12.9 kmh 30.09 in1019.0 mb 0.00 in0.0 mm 0.00 in0.0 mm 0.00 in0.0 mm
04:00 AM 56.5°F13.6°C 44.0°F6.7°C 63% 2.0 mph SW3.2 kmh SW 9.0 mph14.5 kmh 30.10 in1019.3 mb 0.00 in0.0 mm 0.00 in0.0 mm 0.00 in0.0 mm
03:45 AM 56.4°F13.6°C 44.0°F6.7°C 63% 2.8 mph SW4.5 kmh SW 8.0 mph12.9 kmh 30.10 in1019.3 mb 0.00 in0.0 mm 0.00 in0.0 mm 0.00 in0.0 mm
03:30 AM 56.3°F13.5°C 43.4°F6.3°C 62% 2.0 mph SW3.2 kmh SW 8.0 mph12.9 kmh 30.11 in1019.6 mb 0.00 in0.0 mm 0.00 in0.0 mm 0.00 in0.0 mm
03:15 AM 56.3°F13.5°C 43.4°F6.3°C 62% 2.0 mph SW3.2 kmh SW 4.0 mph6.4 kmh 30.11 in1019.6 mb 0.00 in0.0 mm 0.00 in0.0 mm 0.00 in0.0 mm
03:00 AM 56.3°F13.5°C 43.0°F6.1°C 61% 2.5 mph SW4.0 kmh SW 7.0 mph11.3 kmh 30.12 in1020.0 mb 0.00 in0.0 mm 0.00 in0.0 mm 0.00 in0.0 mm
02:45 AM 55.9°F13.3°C 42.6°F5.9°C 61% 1.7 mph SW2.7 kmh SW 6.0 mph9.7 kmh 30.13 in1020.3 mb 0.00 in0.0 mm 0.00 in0.0 mm 0.00 in0.0 mm
02:30 AM 55.5°F13.1°C 41.8°F5.4°C 60% 1.0 mph SSW1.6 kmh SSW 4.0 mph6.4 kmh 30.13 in1020.3 mb 0.00 in0.0 mm 0.00 in0.0 mm 0.00 in0.0 mm
02:15 AM 55.3°F12.9°C 41.6°F5.3°C 60% 0.6 mph SW1.0 kmh SW 3.0 mph4.8 kmh 30.13 in1020.3 mb 0.00 in0.0 mm 0.00 in0.0 mm 0.00 in0.0 mm
02:00 AM 55.4°F13.0°C 41.3°F5.2°C 59% Calm Calm 2.0 mph3.2 kmh 30.14 in1020.7 mb 0.00 in0.0 mm 0.00 in0.0 mm 0.00 in0.0 mm
01:45 AM 55.7°F13.2°C 41.1°F5.1°C 58% 1.0 mph SW1.6 kmh SW 3.0 mph4.8 kmh 30.14 in1020.7 mb 0.00 in0.0 mm 0.00 in0.0 mm 0.00 in0.0 mm
01:30 AM 55.7°F13.2°C 40.7°F4.8°C 57% 1.0 mph SW1.6 kmh SW 3.0 mph4.8 kmh 30.15 in1021.0 mb 0.00 in0.0 mm 0.00 in0.0 mm 0.00 in0.0 mm
01:15 AM 56.1°F13.4°C 40.6°F4.8°C 56% 1.6 mph SW2.6 kmh SW 4.0 mph6.4 kmh 30.15 in1021.0 mb 0.00 in0.0 mm 0.00 in0.0 mm 0.00 in0.0 mm
01:00 AM 56.5°F13.6°C 40.5°F4.7°C 55% 2.0 mph SW3.2 kmh SW 5.0 mph8.0 kmh 30.16 in1021.3 mb 0.00 in0.0 mm 0.00 in0.0 mm 0.00 in0.0 mm
12:45 AM 56.9°F13.8°C 40.4°F4.7°C 54% 2.0 mph SW3.2 kmh SW 5.0 mph8.0 kmh 30.16 in1021.3 mb 0.00 in0.0 mm 0.00 in0.0 mm 0.00 in0.0 mm
12:30 AM 57.3°F14.1°C 40.3°F4.6°C 53% 2.8 mph SW4.5 kmh SW 6.0 mph9.7 kmh 30.16 in1021.3 mb 0.00 in0.0 mm 0.00 in0.0 mm 0.00 in0.0 mm
12:15 AM 57.6°F14.2°C 39.6°F4.2°C 51% 3.2 mph SW5.1 kmh SW 10.0 mph16.1 kmh 30.17 in1021.7 mb 0.00 in0.0 mm 0.00 in0.0 mm 0.00 in0.0 mm
12:00 AM 57.7°F14.3°C 39.2°F4.0°C 50% 3.0 mph SW4.8 kmh SW 10.0 mph16.1 kmh 30.17 in1021.7 mb 0.00 in0.0 mm 0.00 in0.0 mm 0.00 in0.0 mm